sensor_id;sensor_type;location;lat;lon;timestamp;pressure;altitude;pressure_sealevel;temperature;humidity
58473;BME280;44775;51.564;5.460;2022-10-31T00:02:00;101829.09;;;12.18;100.00
58473;BME280;44775;51.564;5.460;2022-10-31T00:04:25;101831.97;;;12.16;100.00
58473;BME280;44775;51.564;5.460;2022-10-31T00:06:50;101833.63;;;12.17;100.00
58473;BME280;44775;51.564;5.460;2022-10-31T00:09:16;101830.66;;;12.20;100.00
58473;BME280;44775;51.564;5.460;2022-10-31T00:11:41;101831.13;;;12.16;100.00
58473;BME280;44775;51.564;5.460;2022-10-31T00:14:07;101831.44;;;12.13;100.00
58473;BME280;44775;51.564;5.460;2022-10-31T00:16:32;101830.19;;;12.07;100.00
58473;BME280;44775;51.564;5.460;2022-10-31T00:19:03;101841.09;;;12.05;100.00
58473;BME280;44775;51.564;5.460;2022-10-31T00:21:30;101834.97;;;11.95;100.00
58473;BME280;44775;51.564;5.460;2022-10-31T00:23:57;101839.31;;;11.96;100.00
58473;BME280;44775;51.564;5.460;2022-10-31T00:26:22;101834.56;;;11.90;100.00
58473;BME280;44775;51.564;5.460;2022-10-31T00:28:48;101840.22;;;11.87;100.00
58473;BME280;44775;51.564;5.460;2022-10-31T00:31:14;101841.94;;;11.88;100.00
58473;BME280;44775;51.564;5.460;2022-10-31T00:33:40;101835.03;;;11.86;100.00
58473;BME280;44775;51.564;5.460;2022-10-31T00:36:07;101837.44;;;11.79;100.00
58473;BME280;44775;51.564;5.460;2022-10-31T00:38:33;101832.94;;;11.79;100.00
58473;BME280;44775;51.564;5.460;2022-10-31T00:40:58;101828.72;;;11.77;100.00
58473;BME280;44775;51.564;5.460;2022-10-31T00:43:24;101818.31;;;11.74;100.00
58473;BME280;44775;51.564;5.460;2022-10-31T00:45:49;101818.59;;;11.71;100.00
58473;BME280;44775;51.564;5.460;2022-10-31T00:48:15;101827.34;;;11.73;100.00
58473;BME280;44775;51.564;5.460;2022-10-31T00:50:41;101818.94;;;11.68;100.00
58473;BME280;44775;51.564;5.460;2022-10-31T00:53:06;101824.66;;;11.73;100.00
58473;BME280;44775;51.564;5.460;2022-10-31T00:55:32;101826.66;;;11.71;100.00
58473;BME280;44775;51.564;5.460;2022-10-31T00:57:58;101823.44;;;11.67;100.00
58473;BME280;44775;51.564;5.460;2022-10-31T01:00:23;101826.28;;;11.66;100.00
58473;BME280;44775;51.564;5.460;2022-10-31T01:02:49;101819.84;;;11.58;100.00
58473;BME280;44775;51.564;5.460;2022-10-31T01:05:14;101831.38;;;11.59;100.00
58473;BME280;44775;51.564;5.460;2022-10-31T01:07:40;101836.22;;;11.55;100.00
58473;BME280;44775;51.564;5.460;2022-10-31T01:10:06;101825.97;;;11.51;100.00
58473;BME280;44775;51.564;5.460;2022-10-31T01:12:46;101810.03;;;11.49;100.00
58473;BME280;44775;51.564;5.460;2022-10-31T01:15:14;101799.50;;;11.48;100.00
58473;BME280;44775;51.564;5.460;2022-10-31T01:17:40;101804.69;;;11.49;100.00
58473;BME280;44775;51.564;5.460;2022-10-31T01:20:07;101802.00;;;11.49;100.00
58473;BME280;44775;51.564;5.460;2022-10-31T01:22:33;101788.91;;;11.46;100.00
58473;BME280;44775;51.564;5.460;2022-10-31T01:24:59;101797.41;;;11.42;100.00
58473;BME280;44775;51.564;5.460;2022-10-31T01:27:25;101802.22;;;11.38;100.00
58473;BME280;44775;51.564;5.460;2022-10-31T01:29:51;101803.13;;;11.29;100.00
58473;BME280;44775;51.564;5.460;2022-10-31T01:32:16;101807.09;;;11.25;100.00
58473;BME280;44775;51.564;5.460;2022-10-31T01:34:42;101812.03;;;11.20;100.00
58473;BME280;44775;51.564;5.460;2022-10-31T01:37:07;101808.88;;;11.06;100.00
58473;BME280;44775;51.564;5.460;2022-10-31T01:39:33;101809.47;;;11.00;100.00
58473;BME280;44775;51.564;5.460;2022-10-31T01:41:58;101814.50;;;11.03;100.00
58473;BME280;44775;51.564;5.460;2022-10-31T01:47:15;101810.06;;;10.94;100.00
58473;BME280;44775;51.564;5.460;2022-10-31T01:52:15;101817.13;;;10.85;100.00
58473;BME280;44775;51.564;5.460;2022-10-31T01:54:45;101812.78;;;10.84;100.00
58473;BME280;44775;51.564;5.460;2022-10-31T01:57:14;101804.22;;;10.81;100.00
58473;BME280;44775;51.564;5.460;2022-10-31T01:59:45;101811.47;;;10.88;100.00
58473;BME280;44775;51.564;5.460;2022-10-31T02:02:13;101802.13;;;10.75;100.00
58473;BME280;44775;51.564;5.460;2022-10-31T02:04:40;101807.63;;;10.73;100.00
58473;BME280;44775;51.564;5.460;2022-10-31T02:07:20;101807.34;;;10.67;100.00
58473;BME280;44775;51.564;5.460;2022-10-31T02:09:49;101803.56;;;10.59;100.00
58473;BME280;44775;51.564;5.460;2022-10-31T02:12:17;101795.28;;;10.53;100.00
58473;BME280;44775;51.564;5.460;2022-10-31T02:14:43;101783.19;;;10.49;100.00
58473;BME280;44775;51.564;5.460;2022-10-31T02:17:08;101792.78;;;10.42;100.00
58473;BME280;44775;51.564;5.460;2022-10-31T02:19:52;101788.44;;;10.40;100.00
58473;BME280;44775;51.564;5.460;2022-10-31T02:31:22;101795.75;;;10.38;100.00
58473;BME280;44775;51.564;5.460;2022-10-31T02:34:08;101778.59;;;10.22;100.00
58473;BME280;44775;51.564;5.460;2022-10-31T02:42:26;101791.41;;;9.99;100.00
58473;BME280;44775;51.564;5.460;2022-10-31T02:45:06;101789.16;;;9.94;100.00
58473;BME280;44775;51.564;5.460;2022-10-31T02:47:36;101786.22;;;9.87;100.00
58473;BME280;44775;51.564;5.460;2022-10-31T02:50:07;101788.59;;;9.90;100.00
58473;BME280;44775;51.564;5.460;2022-10-31T02:52:34;101778.66;;;9.83;100.00
58473;BME280;44775;51.564;5.460;2022-10-31T02:55:38;101786.94;;;9.89;100.00
58473;BME280;44775;51.564;5.460;2022-10-31T02:58:11;101789.59;;;9.89;100.00
58473;BME280;44775;51.564;5.460;2022-10-31T03:00:49;101786.66;;;9.92;100.00
58473;BME280;44775;51.564;5.460;2022-10-31T03:09:28;101799.00;;;9.84;100.00
58473;BME280;44775;51.564;5.460;2022-10-31T03:14:45;101794.38;;;9.76;100.00
58473;BME280;44775;51.564;5.460;2022-10-31T03:17:23;101800.28;;;9.70;100.00
58473;BME280;44775;51.564;5.460;2022-10-31T03:19:53;101804.78;;;9.69;100.00
58473;BME280;44775;51.564;5.460;2022-10-31T03:22:24;101798.16;;;9.74;100.00
58473;BME280;44775;51.564;5.460;2022-10-31T03:24:52;101799.44;;;9.69;100.00
58473;BME280;44775;51.564;5.460;2022-10-31T03:27:25;101798.31;;;9.72;100.00
58473;BME280;44775;51.564;5.460;2022-10-31T03:29:54;101801.53;;;9.66;100.00
58473;BME280;44775;51.564;5.460;2022-10-31T03:34:56;101795.06;;;9.49;100.00
58473;BME280;44775;51.564;5.460;2022-10-31T03:37:24;101791.41;;;9.50;100.00
58473;BME280;44775;51.564;5.460;2022-10-31T03:39:54;101787.72;;;9.41;100.00
58473;BME280;44775;51.564;5.460;2022-10-31T03:42:24;101787.31;;;9.36;100.00
58473;BME280;44775;51.564;5.460;2022-10-31T03:44:58;101788.00;;;9.29;100.00
58473;BME280;44775;51.564;5.460;2022-10-31T03:47:26;101795.81;;;9.20;100.00
58473;BME280;44775;51.564;5.460;2022-10-31T03:49:52;101791.63;;;9.28;100.00
58473;BME280;44775;51.564;5.460;2022-10-31T03:55:10;101788.41;;;9.34;100.00
58473;BME280;44775;51.564;5.460;2022-10-31T03:57:50;101783.34;;;9.21;100.00
58473;BME280;44775;51.564;5.460;2022-10-31T04:00:17;101789.22;;;9.25;100.00
58473;BME280;44775;51.564;5.460;2022-10-31T04:02:53;101781.09;;;9.16;100.00
58473;BME280;44775;51.564;5.460;2022-10-31T04:05:21;101781.22;;;9.15;100.00
58473;BME280;44775;51.564;5.460;2022-10-31T04:07:50;101777.31;;;9.19;100.00
58473;BME280;44775;51.564;5.460;2022-10-31T04:10:18;101783.06;;;9.24;100.00
58473;BME280;44775;51.564;5.460;2022-10-31T04:12:50;101787.53;;;9.14;100.00
58473;BME280;44775;51.564;5.460;2022-10-31T04:15:19;101790.50;;;9.20;100.00
58473;BME280;44775;51.564;5.460;2022-10-31T04:17:46;101784.75;;;9.15;100.00
58473;BME280;44775;51.564;5.460;2022-10-31T04:20:16;101793.69;;;9.14;100.00
58473;BME280;44775;51.564;5.460;2022-10-31T04:22:42;101792.44;;;9.09;100.00
58473;BME280;44775;51.564;5.460;2022-10-31T04:25:08;101786.97;;;9.10;100.00
58473;BME280;44775;51.564;5.460;2022-10-31T04:27:33;101790.72;;;9.08;100.00
58473;BME280;44775;51.564;5.460;2022-10-31T04:29:59;101785.44;;;9.17;100.00
58473;BME280;44775;51.564;5.460;2022-10-31T04:32:25;101780.81;;;9.19;100.00
58473;BME280;44775;51.564;5.460;2022-10-31T04:34:50;101788.97;;;9.18;100.00
58473;BME280;44775;51.564;5.460;2022-10-31T04:37:15;101786.31;;;9.18;100.00
58473;BME280;44775;51.564;5.460;2022-10-31T04:39:41;101787.28;;;9.27;100.00
58473;BME280;44775;51.564;5.460;2022-10-31T04:42:06;101790.13;;;9.35;100.00
58473;BME280;44775;51.564;5.460;2022-10-31T04:44:32;101791.25;;;9.42;100.00
58473;BME280;44775;51.564;5.460;2022-10-31T04:46:57;101800.66;;;9.46;100.00
58473;BME280;44775;51.564;5.460;2022-10-31T04:49:22;101795.06;;;9.49;100.00
58473;BME280;44775;51.564;5.460;2022-10-31T04:51:48;101776.94;;;9.53;100.00
58473;BME280;44775;51.564;5.460;2022-10-31T04:54:13;101792.66;;;9.46;100.00
58473;BME280;44775;51.564;5.460;2022-10-31T04:56:39;101790.13;;;9.54;100.00
58473;BME280;44775;51.564;5.460;2022-10-31T04:59:04;101787.63;;;9.53;100.00
58473;BME280;44775;51.564;5.460;2022-10-31T05:01:29;101782.84;;;9.46;100.00
58473;BME280;44775;51.564;5.460;2022-10-31T05:03:55;101789.00;;;9.47;100.00
58473;BME280;44775;51.564;5.460;2022-10-31T05:06:20;101788.88;;;9.58;100.00
58473;BME280;44775;51.564;5.460;2022-10-31T05:08:46;101780.72;;;9.50;100.00
58473;BME280;44775;51.564;5.460;2022-10-31T05:11:11;101772.28;;;9.55;100.00
58473;BME280;44775;51.564;5.460;2022-10-31T05:13:37;101775.53;;;9.58;100.00
58473;BME280;44775;51.564;5.460;2022-10-31T05:16:02;101768.78;;;9.44;100.00
58473;BME280;44775;51.564;5.460;2022-10-31T05:18:28;101772.00;;;9.29;100.00
58473;BME280;44775;51.564;5.460;2022-10-31T05:20:53;101771.47;;;9.35;100.00
58473;BME280;44775;51.564;5.460;2022-10-31T05:23:19;101764.13;;;9.37;100.00
58473;BME280;44775;51.564;5.460;2022-10-31T05:25:44;101772.03;;;9.38;100.00
58473;BME280;44775;51.564;5.460;2022-10-31T05:28:10;101772.84;;;9.39;100.00
58473;BME280;44775;51.564;5.460;2022-10-31T05:30:35;101775.53;;;9.49;100.00
58473;BME280;44775;51.564;5.460;2022-10-31T05:33:01;101770.47;;;9.45;100.00
58473;BME280;44775;51.564;5.460;2022-10-31T05:35:29;101770.88;;;9.41;100.00
58473;BME280;44775;51.564;5.460;2022-10-31T05:37:55;101771.31;;;9.46;100.00
58473;BME280;44775;51.564;5.460;2022-10-31T05:40:23;101768.94;;;9.43;100.00
58473;BME280;44775;51.564;5.460;2022-10-31T05:42:51;101766.13;;;9.54;100.00
58473;BME280;44775;51.564;5.460;2022-10-31T05:45:17;101761.78;;;9.63;100.00
58473;BME280;44775;51.564;5.460;2022-10-31T05:48:10;101764.72;;;9.60;100.00
58473;BME280;44775;51.564;5.460;2022-10-31T05:50:35;101752.66;;;9.56;100.00
58473;BME280;44775;51.564;5.460;2022-10-31T05:53:03;101755.72;;;9.41;100.00
58473;BME280;44775;51.564;5.460;2022-10-31T05:55:29;101763.31;;;9.46;100.00
58473;BME280;44775;51.564;5.460;2022-10-31T05:57:55;101750.66;;;9.48;100.00
58473;BME280;44775;51.564;5.460;2022-10-31T06:00:21;101747.59;;;9.53;100.00
58473;BME280;44775;51.564;5.460;2022-10-31T06:02:47;101756.84;;;9.39;100.00
58473;BME280;44775;51.564;5.460;2022-10-31T06:05:13;101748.69;;;9.31;100.00
58473;BME280;44775;51.564;5.460;2022-10-31T06:07:38;101755.00;;;9.30;100.00
58473;BME280;44775;51.564;5.460;2022-10-31T06:10:05;101752.88;;;9.23;100.00
58473;BME280;44775;51.564;5.460;2022-10-31T06:12:31;101744.34;;;9.30;100.00
58473;BME280;44775;51.564;5.460;2022-10-31T06:14:57;101750.22;;;9.23;100.00
58473;BME280;44775;51.564;5.460;2022-10-31T06:17:22;101741.63;;;9.10;100.00
58473;BME280;44775;51.564;5.460;2022-10-31T06:19:48;101740.50;;;9.03;100.00
58473;BME280;44775;51.564;5.460;2022-10-31T06:22:13;101737.41;;;8.98;100.00
58473;BME280;44775;51.564;5.460;2022-10-31T06:24:39;101750.88;;;9.06;100.00
58473;BME280;44775;51.564;5.460;2022-10-31T06:27:05;101750.59;;;8.99;100.00
58473;BME280;44775;51.564;5.460;2022-10-31T06:29:31;101746.69;;;9.13;100.00
58473;BME280;44775;51.564;5.460;2022-10-31T06:31:56;101739.81;;;9.01;100.00
58473;BME280;44775;51.564;5.460;2022-10-31T06:34:22;101739.94;;;8.99;100.00
58473;BME280;44775;51.564;5.460;2022-10-31T06:36:47;101746.38;;;9.07;100.00
58473;BME280;44775;51.564;5.460;2022-10-31T06:39:13;101747.22;;;9.07;100.00
58473;BME280;44775;51.564;5.460;2022-10-31T06:41:38;101751.16;;;9.03;100.00
58473;BME280;44775;51.564;5.460;2022-10-31T06:44:06;101754.97;;;9.10;100.00
58473;BME280;44775;51.564;5.460;2022-10-31T06:46:31;101751.88;;;9.05;100.00
58473;BME280;44775;51.564;5.460;2022-10-31T06:48:57;101753.41;;;8.98;100.00
58473;BME280;44775;51.564;5.460;2022-10-31T06:51:22;101749.78;;;9.09;100.00
58473;BME280;44775;51.564;5.460;2022-10-31T06:53:48;101744.56;;;9.07;100.00
58473;BME280;44775;51.564;5.460;2022-10-31T06:56:13;101753.16;;;9.20;100.00
58473;BME280;44775;51.564;5.460;2022-10-31T06:58:39;101750.94;;;9.26;100.00
58473;BME280;44775;51.564;5.460;2022-10-31T07:01:04;101750.75;;;9.17;100.00
58473;BME280;44775;51.564;5.460;2022-10-31T07:03:30;101747.56;;;9.23;100.00
58473;BME280;44775;51.564;5.460;2022-10-31T07:05:56;101748.00;;;9.29;100.00
58473;BME280;44775;51.564;5.460;2022-10-31T07:08:22;101752.06;;;9.33;100.00
58473;BME280;44775;51.564;5.460;2022-10-31T07:10:55;101753.47;;;9.37;100.00
58473;BME280;44775;51.564;5.460;2022-10-31T07:13:22;101754.75;;;9.42;100.00
58473;BME280;44775;51.564;5.460;2022-10-31T07:15:51;101743.53;;;9.49;100.00
58473;BME280;44775;51.564;5.460;2022-10-31T07:18:18;101745.50;;;9.56;100.00
58473;BME280;44775;51.564;5.460;2022-10-31T07:20:43;101754.19;;;9.68;100.00
58473;BME280;44775;51.564;5.460;2022-10-31T07:23:10;101758.56;;;9.79;100.00
58473;BME280;44775;51.564;5.460;2022-10-31T07:25:37;101754.34;;;9.86;100.00
58473;BME280;44775;51.564;5.460;2022-10-31T07:28:03;101752.06;;;9.91;100.00
58473;BME280;44775;51.564;5.460;2022-10-31T07:30:28;101760.22;;;9.99;100.00
58473;BME280;44775;51.564;5.460;2022-10-31T07:32:54;101757.56;;;9.99;100.00
58473;BME280;44775;51.564;5.460;2022-10-31T07:35:25;101764.41;;;10.11;100.00
58473;BME280;44775;51.564;5.460;2022-10-31T07:37:51;101757.50;;;10.18;100.00
58473;BME280;44775;51.564;5.460;2022-10-31T07:40:17;101762.19;;;10.26;100.00
58473;BME280;44775;51.564;5.460;2022-10-31T07:42:46;101762.28;;;10.34;100.00
58473;BME280;44775;51.564;5.460;2022-10-31T07:45:14;101771.69;;;10.38;100.00
58473;BME280;44775;51.564;5.460;2022-10-31T07:47:44;101769.16;;;10.47;100.00
58473;BME280;44775;51.564;5.460;2022-10-31T07:50:12;101767.16;;;10.49;100.00
58473;BME280;44775;51.564;5.460;2022-10-31T07:52:38;101762.66;;;10.49;100.00
58473;BME280;44775;51.564;5.460;2022-10-31T07:55:04;101767.44;;;10.55;100.00
58473;BME280;44775;51.564;5.460;2022-10-31T07:57:30;101769.97;;;10.57;100.00
58473;BME280;44775;51.564;5.460;2022-10-31T07:59:56;101768.22;;;10.66;100.00
58473;BME280;44775;51.564;5.460;2022-10-31T08:02:21;101777.22;;;10.74;100.00
58473;BME280;44775;51.564;5.460;2022-10-31T08:04:46;101776.34;;;10.83;100.00
58473;BME280;44775;51.564;5.460;2022-10-31T08:07:12;101776.44;;;10.92;100.00
58473;BME280;44775;51.564;5.460;2022-10-31T08:09:37;101776.75;;;11.06;100.00
58473;BME280;44775;51.564;5.460;2022-10-31T08:12:03;101779.56;;;11.15;100.00
58473;BME280;44775;51.564;5.460;2022-10-31T08:14:29;101789.91;;;11.27;100.00
58473;BME280;44775;51.564;5.460;2022-10-31T08:16:54;101783.25;;;11.31;100.00
58473;BME280;44775;51.564;5.460;2022-10-31T08:19:20;101785.56;;;11.44;100.00
58473;BME280;44775;51.564;5.460;2022-10-31T08:21:45;101781.91;;;11.63;100.00
58473;BME280;44775;51.564;5.460;2022-10-31T08:24:11;101773.97;;;11.71;100.00
58473;BME280;44775;51.564;5.460;2022-10-31T08:26:36;101768.91;;;11.86;100.00
58473;BME280;44775;51.564;5.460;2022-10-31T08:29:02;101767.25;;;11.85;100.00
58473;BME280;44775;51.564;5.460;2022-10-31T08:31:28;101766.28;;;11.94;100.00
58473;BME280;44775;51.564;5.460;2022-10-31T08:33:54;101766.38;;;12.02;100.00
58473;BME280;44775;51.564;5.460;2022-10-31T08:36:20;101779.59;;;12.22;100.00
58473;BME280;44775;51.564;5.460;2022-10-31T08:38:47;101777.47;;;12.34;100.00
58473;BME280;44775;51.564;5.460;2022-10-31T08:41:12;101756.88;;;12.60;100.00
58473;BME280;44775;51.564;5.460;2022-10-31T08:43:38;101766.47;;;12.71;100.00
58473;BME280;44775;51.564;5.460;2022-10-31T08:46:03;101762.44;;;12.67;100.00
58473;BME280;44775;51.564;5.460;2022-10-31T08:48:29;101739.63;;;12.63;100.00
58473;BME280;44775;51.564;5.460;2022-10-31T08:50:56;101712.13;;;12.61;100.00
58473;BME280;44775;51.564;5.460;2022-10-31T08:53:23;101696.84;;;12.53;100.00
58473;BME280;44775;51.564;5.460;2022-10-31T08:55:49;101703.56;;;12.57;100.00
58473;BME280;44775;51.564;5.460;2022-10-31T08:58:17;101706.44;;;12.64;100.00
58473;BME280;44775;51.564;5.460;2022-10-31T09:00:44;101712.00;;;12.70;100.00
58473;BME280;44775;51.564;5.460;2022-10-31T09:03:16;101727.91;;;12.72;100.00
58473;BME280;44775;51.564;5.460;2022-10-31T09:05:41;101733.66;;;12.77;100.00
58473;BME280;44775;51.564;5.460;2022-10-31T09:08:08;101726.31;;;12.87;100.00
58473;BME280;44775;51.564;5.460;2022-10-31T09:10:35;101729.13;;;12.86;100.00
58473;BME280;44775;51.564;5.460;2022-10-31T09:13:10;101731.38;;;12.98;100.00
58473;BME280;44775;51.564;5.460;2022-10-31T09:15:38;101718.78;;;12.99;100.00
58473;BME280;44775;51.564;5.460;2022-10-31T09:18:05;101732.06;;;13.09;100.00
58473;BME280;44775;51.564;5.460;2022-10-31T09:20:31;101729.97;;;13.29;100.00
58473;BME280;44775;51.564;5.460;2022-10-31T09:23:03;101742.41;;;13.38;100.00
58473;BME280;44775;51.564;5.460;2022-10-31T09:25:29;101747.63;;;13.48;100.00
58473;BME280;44775;51.564;5.460;2022-10-31T09:27:58;101719.78;;;13.49;100.00
58473;BME280;44775;51.564;5.460;2022-10-31T09:30:25;101714.72;;;13.45;100.00
58473;BME280;44775;51.564;5.460;2022-10-31T09:32:58;101704.50;;;13.49;100.00
58473;BME280;44775;51.564;5.460;2022-10-31T09:35:24;101701.31;;;13.70;100.00
58473;BME280;44775;51.564;5.460;2022-10-31T09:37:57;101699.28;;;13.80;100.00
58473;BME280;44775;51.564;5.460;2022-10-31T09:40:52;101678.50;;;13.74;100.00
58473;BME280;44775;51.564;5.460;2022-10-31T09:43:28;101681.84;;;13.68;100.00
58473;BME280;44775;51.564;5.460;2022-10-31T09:51:47;101678.97;;;13.69;100.00
58473;BME280;44775;51.564;5.460;2022-10-31T09:54:19;101690.22;;;13.73;100.00
58473;BME280;44775;51.564;5.460;2022-10-31T09:56:45;101680.16;;;13.75;100.00
58473;BME280;44775;51.564;5.460;2022-10-31T09:59:36;101679.81;;;13.78;100.00
58473;BME280;44775;51.564;5.460;2022-10-31T10:02:09;101674.78;;;13.83;100.00
58473;BME280;44775;51.564;5.460;2022-10-31T10:07:41;101685.84;;;13.88;100.00
58473;BME280;44775;51.564;5.460;2022-10-31T10:15:47;101638.25;;;14.13;100.00
58473;BME280;44775;51.564;5.460;2022-10-31T10:18:29;101651.59;;;14.46;100.00
58473;BME280;44775;51.564;5.460;2022-10-31T10:21:08;101647.81;;;14.72;100.00
58473;BME280;44775;51.564;5.460;2022-10-31T10:24:03;101645.00;;;15.19;100.00
58473;BME280;44775;51.564;5.460;2022-10-31T10:26:40;101642.94;;;15.44;100.00
58473;BME280;44775;51.564;5.460;2022-10-31T10:29:21;101633.47;;;15.48;100.00
58473;BME280;44775;51.564;5.460;2022-10-31T10:31:51;101624.56;;;15.48;100.00
58473;BME280;44775;51.564;5.460;2022-10-31T10:34:27;101625.34;;;15.56;100.00
58473;BME280;44775;51.564;5.460;2022-10-31T10:37:01;101613.97;;;15.69;100.00
58473;BME280;44775;51.564;5.460;2022-10-31T10:39:49;101619.72;;;15.66;100.00
58473;BME280;44775;51.564;5.460;2022-10-31T10:42:16;101634.72;;;15.61;100.00
58473;BME280;44775;51.564;5.460;2022-10-31T10:45:20;101628.84;;;15.80;100.00
58473;BME280;44775;51.564;5.460;2022-10-31T10:48:15;101619.00;;;16.02;100.00
58473;BME280;44775;51.564;5.460;2022-10-31T10:50:48;101629.22;;;16.21;100.00
58473;BME280;44775;51.564;5.460;2022-10-31T10:53:34;101638.22;;;16.43;100.00
58473;BME280;44775;51.564;5.460;2022-10-31T10:56:37;101619.13;;;16.60;100.00
58473;BME280;44775;51.564;5.460;2022-10-31T10:59:10;101626.09;;;16.69;100.00
58473;BME280;44775;51.564;5.460;2022-10-31T11:01:36;101612.56;;;16.84;100.00
58473;BME280;44775;51.564;5.460;2022-10-31T11:04:30;101611.06;;;16.96;100.00
58473;BME280;44775;51.564;5.460;2022-10-31T11:07:02;101600.78;;;16.85;100.00
58473;BME280;44775;51.564;5.460;2022-10-31T11:09:28;101607.56;;;16.81;100.00
58473;BME280;44775;51.564;5.460;2022-10-31T11:11:55;101606.41;;;16.90;100.00
58473;BME280;44775;51.564;5.460;2022-10-31T11:14:21;101611.06;;;16.96;100.00
58473;BME280;44775;51.564;5.460;2022-10-31T11:16:52;101612.84;;;16.89;100.00
58473;BME280;44775;51.564;5.460;2022-10-31T11:19:21;101603.84;;;17.03;100.00
58473;BME280;44775;51.564;5.460;2022-10-31T11:21:48;101599.34;;;17.32;100.00
58473;BME280;44775;51.564;5.460;2022-10-31T11:24:16;101598.22;;;17.47;100.00
58473;BME280;44775;51.564;5.460;2022-10-31T11:26:44;101590.69;;;17.71;100.00
58473;BME280;44775;51.564;5.460;2022-10-31T11:29:20;101575.47;;;17.63;100.00
58473;BME280;44775;51.564;5.460;2022-10-31T11:31:46;101560.91;;;17.64;100.00
58473;BME280;44775;51.564;5.460;2022-10-31T11:34:34;101545.47;;;17.52;100.00
58473;BME280;44775;51.564;5.460;2022-10-31T11:37:16;101544.06;;;17.34;100.00
58473;BME280;44775;51.564;5.460;2022-10-31T11:39:45;101539.38;;;17.43;100.00
58473;BME280;44775;51.564;5.460;2022-10-31T11:42:22;101537.97;;;17.54;100.00
58473;BME280;44775;51.564;5.460;2022-10-31T11:44:50;101536.75;;;17.56;100.00
58473;BME280;44775;51.564;5.460;2022-10-31T11:47:17;101531.44;;;17.69;100.00
58473;BME280;44775;51.564;5.460;2022-10-31T11:49:48;101530.50;;;17.84;98.65
58473;BME280;44775;51.564;5.460;2022-10-31T11:52:22;101515.91;;;18.20;98.31
58473;BME280;44775;51.564;5.460;2022-10-31T11:55:14;101513.06;;;18.48;96.95
58473;BME280;44775;51.564;5.460;2022-10-31T12:06:28;101484.75;;;18.50;92.52
58473;BME280;44775;51.564;5.460;2022-10-31T12:08:54;101474.94;;;18.49;92.51
58473;BME280;44775;51.564;5.460;2022-10-31T12:19:00;101450.84;;;18.68;90.45
58473;BME280;44775;51.564;5.460;2022-10-31T12:21:44;101452.13;;;18.78;92.06
58473;BME280;44775;51.564;5.460;2022-10-31T12:24:17;101443.13;;;18.71;89.16
58473;BME280;44775;51.564;5.460;2022-10-31T12:26:49;101436.03;;;18.50;90.06
58473;BME280;44775;51.564;5.460;2022-10-31T12:29:29;101425.00;;;18.45;90.03
58473;BME280;44775;51.564;5.460;2022-10-31T12:32:32;101424.56;;;18.35;91.52
58473;BME280;44775;51.564;5.460;2022-10-31T12:35:36;101416.28;;;18.50;91.59
58473;BME280;44775;51.564;5.460;2022-10-31T12:43:46;101399.84;;;18.78;88.28
58473;BME280;44775;51.564;5.460;2022-10-31T12:54:47;101370.91;;;20.01;82.75
58473;BME280;44775;51.564;5.460;2022-10-31T12:57:28;101363.44;;;20.54;81.72
58473;BME280;44775;51.564;5.460;2022-10-31T13:02:41;101350.38;;;20.87;79.21
58473;BME280;44775;51.564;5.460;2022-10-31T13:05:19;101342.66;;;20.84;76.62
58473;BME280;44775;51.564;5.460;2022-10-31T13:07:56;101344.69;;;20.70;74.45
58473;BME280;44775;51.564;5.460;2022-10-31T13:11:00;101336.16;;;20.85;74.90
58473;BME280;44775;51.564;5.460;2022-10-31T13:13:35;101318.22;;;20.66;74.24
58473;BME280;44775;51.564;5.460;2022-10-31T13:16:08;101317.59;;;20.64;74.81
58473;BME280;44775;51.564;5.460;2022-10-31T13:18:44;101312.22;;;20.57;75.46
58473;BME280;44775;51.564;5.460;2022-10-31T13:21:17;101299.75;;;20.49;75.98
58473;BME280;44775;51.564;5.460;2022-10-31T13:23:44;101285.91;;;20.58;74.36
58473;BME280;44775;51.564;5.460;2022-10-31T13:26:20;101287.41;;;20.28;74.14
58473;BME280;44775;51.564;5.460;2022-10-31T13:29:24;101275.91;;;20.08;74.77
58473;BME280;44775;51.564;5.460;2022-10-31T13:31:51;101277.88;;;19.56;75.73
58473;BME280;44775;51.564;5.460;2022-10-31T13:45:20;101261.78;;;20.86;70.88
58473;BME280;44775;51.564;5.460;2022-10-31T13:48:31;101259.88;;;21.05;70.90
58473;BME280;44775;51.564;5.460;2022-10-31T13:50:58;101254.72;;;21.15;69.24
58473;BME280;44775;51.564;5.460;2022-10-31T13:58:33;101234.94;;;20.60;68.27
58473;BME280;44775;51.564;5.460;2022-10-31T14:03:39;101225.88;;;19.97;70.93
58473;BME280;44775;51.564;5.460;2022-10-31T14:06:07;101213.44;;;19.58;73.06
58473;BME280;44775;51.564;5.460;2022-10-31T14:08:35;101222.22;;;19.22;74.31
58473;BME280;44775;51.564;5.460;2022-10-31T14:11:02;101217.75;;;18.89;75.06
58473;BME280;44775;51.564;5.460;2022-10-31T14:13:38;101222.44;;;18.55;77.79
58473;BME280;44775;51.564;5.460;2022-10-31T14:16:25;101219.72;;;18.49;77.99
58473;BME280;44775;51.564;5.460;2022-10-31T14:23:52;101201.72;;;17.89;81.06
58473;BME280;44775;51.564;5.460;2022-10-31T14:29:30;101199.84;;;17.83;82.66
58473;BME280;44775;51.564;5.460;2022-10-31T14:36:59;101194.78;;;17.54;84.62
58473;BME280;44775;51.564;5.460;2022-10-31T14:39:49;101185.47;;;17.63;85.12
58473;BME280;44775;51.564;5.460;2022-10-31T14:45:15;101175.91;;;17.67;84.93
58473;BME280;44775;51.564;5.460;2022-10-31T14:50:54;101180.88;;;17.70;84.35
58473;BME280;44775;51.564;5.460;2022-10-31T14:53:29;101173.38;;;17.39;86.11
58473;BME280;44775;51.564;5.460;2022-10-31T14:55:57;101160.25;;;17.22;86.67
58473;BME280;44775;51.564;5.460;2022-10-31T14:58:38;101150.69;;;17.27;86.99
58473;BME280;44775;51.564;5.460;2022-10-31T15:01:06;101147.16;;;17.19;88.05